Station info - map view · info · telemetry · weather · raw · status · beacons · messages · bulletins · browse · moving · my account
Callsign, ship name or locator: Clear       
It is possible to search using wildcards (*?) after a prefix. Example: OH*
APRS station KK6BFN-7 - show graphs
Map loading...
Comment: N18360 K 4.03V +29,5C TF
Location: 32°08.16' N 111°01.01' W - locator DM42LD72XP - show map - static map
0.8 miles Southeast bearing 118° from Drexel Heights, Pima County, Arizona, United States [?]
5.2 miles Southwest bearing 213° from South Tucson, Pima County, Arizona, United States
7.9 miles Southwest bearing 222° from Tucson, Pima County, Arizona, United States
57.3 miles North bearing 356° from Heroica Nogales, Sonora, Mexico
Last position: 2017-01-12 18:46:33 EST (4d 13h23m ago)
2017-01-12 16:46:33 MST local time at Drexel Heights, United States [?]
Altitude: 5139 ft
Course: 87°
Speed: 180 MPH
Device: SainSonic: AP510 (tracker)
Last path: KK6BFN-7>APAVT5 via K7LHR-10*,WIDE2-1,qAR,KY7K-10 (seriously-bad)
This station appears to be flying at high altitude and using digipeaters, which causes serious congestion in the APRS network. The tracker should be configured to only use digipeaters when at low altitude.
Positions stored: 12120
Packet rate: 184 seconds between packets on average during 9225 seconds.
APRS digipeater – Statistics for 2017-01:
Stations heard directly: 4 on radio path – show map
Last heard a station directly: 2017-01-12 17:13:15 EST (4d 14h56m ago)
Position packets heard directly: 4 on radio path
Stations near current position of KK6BFN-7 - show more
callsign distance last heard - EST      callsign distance last heard - EST
KG7AQE2.5 miles 102°2017-01-16 23:04:42 N3806E2.8 miles 18°2017-01-15 17:51:10
EW96584.6 miles 345°2017-01-17 08:10:10 EW72264.6 miles 86°2017-01-17 08:04:56
K7ZMA-34.7 miles 358°2017-01-15 20:05:53 KD6VLN-25.0 miles 101°2017-01-08 12:15:38
W7SA-125.2 miles 116°2017-01-17 08:08:11 K1LEF-15.3 miles 314°2017-01-16 22:07:06
KC7IPY-75.5 miles 61°2017-01-15 13:08:19 EW58095.8 miles 316°2017-01-17 08:04:13
VE3RJS5.9 miles 308°2017-01-16 17:32:55 W7WXX-76.3 miles 280°2017-01-13 16:19:46
W7AI B6.6 miles 347°2017-01-17 07:56:26 W7AI-B6.6 miles 347°2017-01-17 07:56:36
K7MJQ-96.7 miles 25°2016-12-29 11:01:24 N7EH B7.3 miles 54°2016-12-28 20:05:30
N7EH-B7.3 miles 54°2016-12-28 20:05:40 N7EH7.3 miles 54°2016-12-28 14:36:34
EW19567.6 miles 35°2017-01-17 07:57:42 W0KJH-107.6 miles 24°2017-01-17 08:06:58
Stations which heard KK6BFN-7 directly on radio –
callsign pkts first heard - EST last heard longest (tx => rx) longest at - EST
W7MOT-3 4 2017-01-12 17:24:20 2017-01-12 17:56:05 DM23EX > DM33RN 176.8 miles 98° 2017-01-12 17:24:20
W6BXN-3 1 2017-01-12 16:08:21 2017-01-12 16:08:21 DM05BO > CM97XM 132.7 miles 355° 2017-01-12 16:08:21
K6IXA-3 1 2017-01-12 16:31:23 2017-01-12 16:31:23 DM04PX > DM06NR 121.5 miles 356° 2017-01-12 16:31:23
KB7KFC-1 1 2017-01-12 18:23:46 2017-01-12 18:23:46 DM32VR > DM43BF 39.8 miles 26° 2017-01-12 18:23:46
K6LY-3 1 2017-01-12 15:37:45 2017-01-12 15:37:45 CM96JR > CM96AO 41.1 miles 258° 2017-01-12 15:37:45
KD6DSI-5 1 2017-01-12 16:03:58 2017-01-12 16:03:58 CM95WR > CM95PJ 41.7 miles 237° 2017-01-12 16:03:58
AA6HF 3 2017-01-12 17:05:53 2017-01-12 17:15:16 DM14QK > DM13SU 39.9 miles 170° 2017-01-12 17:05:53
KD6LAY 1 2017-01-12 17:00:53 2017-01-12 17:00:53 DM14NM > DM04UP 79.4 miles 277° 2017-01-12 17:00:53
KF6ILA 1 2017-01-12 17:46:55 2017-01-12 17:46:55 DM23VP > DM13RB 142.3 miles 254° 2017-01-12 17:46:55
K6MAR-10 3 2017-01-12 16:17:15 2017-01-12 16:26:33 DM05HK > DM05NJ 27.8 miles 92° 2017-01-12 16:17:15
KD6GHX 1 2017-01-12 17:42:26 2017-01-12 17:42:26 DM23SR > DM25XI 115.3 miles 13° 2017-01-12 17:42:26
W7DXJ-12 1 2017-01-12 17:33:25 2017-01-12 17:33:25 DM23LU > DM23XQ 58.7 miles 101° 2017-01-12 17:33:25
KELLER 1 2017-01-12 16:41:11 2017-01-12 16:41:11 DM04VQ > DM14LE 72.8 miles 118° 2017-01-12 16:41:11
EDOM 1 2017-01-12 17:19:51 2017-01-12 17:19:51 DM24BB > DM13SU 33.2 miles 248° 2017-01-12 17:19:51
KY7K-10 1 2017-01-12 18:37:19 2017-01-12 18:37:19 DM42GI > DM41EW 29.6 miles 196° 2017-01-12 18:37:19
K7LHR-10 1 2017-01-12 18:46:33 2017-01-12 18:46:33 DM42LD > DM41PX 20.3 miles 121° 2017-01-12 18:46:33
N6SGX-10 1 2017-01-12 16:56:04 2017-01-12 16:56:04 DM14JN > DM13LS 56.5 miles 169° 2017-01-12 16:56:04
W6SCE-11 3 2017-01-12 17:15:18 2017-01-12 17:28:51 DM14VC > DM23GP 53.4 miles 127° 2017-01-12 17:15:18
KF0X-11 1 2017-01-12 18:41:47 2017-01-12 18:41:47 DM42JF > DM42LM 21.1 miles 34° 2017-01-12 18:41:47
KE7NEA-1 1 2017-01-12 18:14:24 2017-01-12 18:14:24 DM32PX > DM33UO 49.6 miles 25° 2017-01-12 18:14:24
W6TUW-3 1 2017-01-12 15:33:07 2017-01-12 15:33:07 CM96HT > CM87WC 47.5 miles 293° 2017-01-12 15:33:07
N0DAJ 3 2017-01-12 18:00:48 2017-01-12 18:09:51 DM33MB > DM34OA 64.2 miles 8° 2017-01-12 18:09:51
K6BJ-3 1 2017-01-12 15:42:07 2017-01-12 15:42:07 CM96LM > CM96AX 61.8 miles 302° 2017-01-12 15:42:07
W6AB-15 1 2017-01-12 15:46:35 2017-01-12 15:46:35 CM96NI > CM94SS 111.8 miles 169° 2017-01-12 15:46:35
W6SDM-2 2 2017-01-12 18:19:04 2017-01-12 18:28:25 DM42AO > DM32WU 22.8 miles 327° 2017-01-12 18:28:25
W6TZI-1 4 2017-01-12 15:50:52 2017-01-12 16:12:48 DM05FN > CM96TD 60.2 miles 313° 2017-01-12 16:12:48
KJ6YLW-2 6 2017-01-12 16:46:14 2017-01-12 18:00:49 DM33GH > DM13QD 181.9 miles 267° 2017-01-12 18:00:49
K6AWN-10 3 2017-01-12 16:36:10 2017-01-12 16:51:19 DM14FO > DM04WQ 35.8 miles 279° 2017-01-12 16:51:19

Only position packets which were originated by the station are shown here. The range statistics show some extra long hops, because some digipeaters do not correctly add themselves to the digipeater path. Please check the raw packets.
Stations heard directly by KK6BFN-7
callsign pkts first heard - EST last heard longest (rx => tx) longest at - EST
YUCCA 1 2017-01-12 17:13:15 2017-01-12 17:13:15 DM14TD > DM14SF 6.9 miles 162° 2017-01-12 17:13:15
KD6LAY-9 1 2017-01-12 16:34:56 2017-01-12 16:34:56 DM04WP > DM04PX 37.1 miles 127° 2017-01-12 16:34:56
AB6KR-2 1 2017-01-12 17:10:49 2017-01-12 17:10:49 DM14TC > DM14SF 8.8 miles 168° 2017-01-12 17:10:49
KL4CF-2 1 2017-01-12 16:42:36 2017-01-12 16:42:36 DM04VU > DM04VQ 11.7 miles 1° 2017-01-12 16:42:36

Only stations from which a position packet has been heard are shown here. The range statistics show some extra long hops, because some digipeaters do not correctly add themselves to the digipeater path. Please check the raw packets.
About this site
This page shows real-time information collected from the Automatic Position Reporting System Internet network (APRS-IS). APRS is used by amateur (ham) radio operators to transmit real-time position information, weather data, telemetry and messages over the radio. A vehicle equipped with a GPS receiver, a VHF transmitter or HF transceiver and a small computer device called a tracker transmits it's location, speed and course in a small data packet, which is then received by a nearby iGate receiving site which forwards the packet on the Internet. Systems connected to the Internet can send information on the APRS-IS without a radio transmitter, or collect and display information transmitted anywhere in the world.
FAQ · Blog · Discussion group · Linking to aprs.fi · AIS sites · Service status · Database statistics · Advertising on aprs.fi · Technical details · API · Change log · Planned changes · Credits and thanks · Terms Of Service · iPhone/iPad APRS